sensor_id;sensor_type;location;lat;lon;timestamp;P1;durP1;ratioP1;P2;durP2;ratioP2
11964;SDS011;6042;41.326;19.826;2023-12-20T00:01:29;8.67;;;6.03;;
11964;SDS011;6042;41.326;19.826;2023-12-20T00:03:58;10.97;;;5.80;;
11964;SDS011;6042;41.326;19.826;2023-12-20T00:06:28;10.23;;;6.23;;
11964;SDS011;6042;41.326;19.826;2023-12-20T00:09:00;8.33;;;5.87;;
11964;SDS011;6042;41.326;19.826;2023-12-20T00:11:29;10.07;;;5.87;;
11964;SDS011;6042;41.326;19.826;2023-12-20T00:13:58;10.50;;;6.47;;
11964;SDS011;6042;41.326;19.826;2023-12-20T00:16:28;10.80;;;6.47;;
11964;SDS011;6042;41.326;19.826;2023-12-20T00:18:58;9.30;;;7.07;;
11964;SDS011;6042;41.326;19.826;2023-12-20T00:21:27;10.17;;;5.70;;
11964;SDS011;6042;41.326;19.826;2023-12-20T00:23:56;12.47;;;6.40;;
11964;SDS011;6042;41.326;19.826;2023-12-20T00:26:25;8.50;;;5.07;;
11964;SDS011;6042;41.326;19.826;2023-12-20T00:28:56;8.20;;;5.27;;
11964;SDS011;6042;41.326;19.826;2023-12-20T00:31:25;8.47;;;5.03;;
11964;SDS011;6042;41.326;19.826;2023-12-20T00:33:58;7.07;;;4.03;;
11964;SDS011;6042;41.326;19.826;2023-12-20T00:36:27;13.30;;;4.87;;
11964;SDS011;6042;41.326;19.826;2023-12-20T00:38:56;6.33;;;4.53;;
11964;SDS011;6042;41.326;19.826;2023-12-20T00:41:25;10.53;;;4.90;;
11964;SDS011;6042;41.326;19.826;2023-12-20T00:43:54;11.00;;;4.50;;
11964;SDS011;6042;41.326;19.826;2023-12-20T00:46:23;8.87;;;4.77;;
11964;SDS011;6042;41.326;19.826;2023-12-20T00:48:52;6.07;;;4.50;;
11964;SDS011;6042;41.326;19.826;2023-12-20T00:51:22;9.47;;;4.90;;
11964;SDS011;6042;41.326;19.826;2023-12-20T00:53:51;8.27;;;4.80;;
11964;SDS011;6042;41.326;19.826;2023-12-20T00:56:21;10.17;;;5.20;;
11964;SDS011;6042;41.326;19.826;2023-12-20T00:58:53;8.90;;;4.60;;
11964;SDS011;6042;41.326;19.826;2023-12-20T01:01:24;8.40;;;4.87;;
11964;SDS011;6042;41.326;19.826;2023-12-20T01:03:53;9.63;;;5.67;;
11964;SDS011;6042;41.326;19.826;2023-12-20T01:06:24;12.00;;;6.00;;
11964;SDS011;6042;41.326;19.826;2023-12-20T01:08:53;7.93;;;5.20;;
11964;SDS011;6042;41.326;19.826;2023-12-20T01:11:22;8.23;;;4.93;;
11964;SDS011;6042;41.326;19.826;2023-12-20T01:13:54;7.03;;;4.53;;
11964;SDS011;6042;41.326;19.826;2023-12-20T01:16:23;9.17;;;5.40;;
11964;SDS011;6042;41.326;19.826;2023-12-20T01:18:53;7.60;;;5.00;;
11964;SDS011;6042;41.326;19.826;2023-12-20T01:21:24;11.50;;;4.80;;
11964;SDS011;6042;41.326;19.826;2023-12-20T01:23:53;9.93;;;4.53;;
11964;SDS011;6042;41.326;19.826;2023-12-20T01:26:22;6.93;;;4.40;;
11964;SDS011;6042;41.326;19.826;2023-12-20T01:28:51;8.00;;;5.63;;
11964;SDS011;6042;41.326;19.826;2023-12-20T01:31:20;9.30;;;6.13;;
11964;SDS011;6042;41.326;19.826;2023-12-20T01:33:49;12.47;;;5.90;;
11964;SDS011;6042;41.326;19.826;2023-12-20T01:36:18;10.03;;;5.30;;
11964;SDS011;6042;41.326;19.826;2023-12-20T01:38:49;11.07;;;5.40;;
11964;SDS011;6042;41.326;19.826;2023-12-20T01:41:18;10.37;;;5.27;;
11964;SDS011;6042;41.326;19.826;2023-12-20T01:43:47;9.97;;;5.27;;
11964;SDS011;6042;41.326;19.826;2023-12-20T01:46:18;10.13;;;4.50;;
11964;SDS011;6042;41.326;19.826;2023-12-20T01:48:48;10.73;;;5.27;;
11964;SDS011;6042;41.326;19.826;2023-12-20T01:51:18;11.43;;;5.30;;
11964;SDS011;6042;41.326;19.826;2023-12-20T01:53:49;8.47;;;5.27;;
11964;SDS011;6042;41.326;19.826;2023-12-20T01:56:18;8.23;;;4.57;;
11964;SDS011;6042;41.326;19.826;2023-12-20T01:58:47;5.97;;;4.90;;
11964;SDS011;6042;41.326;19.826;2023-12-20T02:01:17;6.50;;;4.10;;
11964;SDS011;6042;41.326;19.826;2023-12-20T02:03:47;9.27;;;4.50;;
11964;SDS011;6042;41.326;19.826;2023-12-20T02:06:16;9.30;;;4.60;;
11964;SDS011;6042;41.326;19.826;2023-12-20T02:08:46;7.97;;;4.50;;
11964;SDS011;6042;41.326;19.826;2023-12-20T02:11:18;5.77;;;4.27;;
11964;SDS011;6042;41.326;19.826;2023-12-20T02:13:48;8.43;;;3.73;;
11964;SDS011;6042;41.326;19.826;2023-12-20T02:16:17;7.20;;;3.87;;
11964;SDS011;6042;41.326;19.826;2023-12-20T02:18:46;5.10;;;3.17;;
11964;SDS011;6042;41.326;19.826;2023-12-20T02:21:16;5.60;;;3.23;;
11964;SDS011;6042;41.326;19.826;2023-12-20T02:23:46;7.37;;;3.30;;
11964;SDS011;6042;41.326;19.826;2023-12-20T02:26:15;5.60;;;3.00;;
11964;SDS011;6042;41.326;19.826;2023-12-20T02:28:47;3.27;;;2.93;;
11964;SDS011;6042;41.326;19.826;2023-12-20T02:31:16;6.00;;;2.83;;
11964;SDS011;6042;41.326;19.826;2023-12-20T02:33:48;4.03;;;2.97;;
11964;SDS011;6042;41.326;19.826;2023-12-20T02:36:17;5.20;;;3.10;;
11964;SDS011;6042;41.326;19.826;2023-12-20T02:38:48;5.23;;;2.33;;
11964;SDS011;6042;41.326;19.826;2023-12-20T02:41:17;3.80;;;2.40;;
11964;SDS011;6042;41.326;19.826;2023-12-20T02:43:47;3.67;;;2.53;;
11964;SDS011;6042;41.326;19.826;2023-12-20T02:46:16;3.60;;;1.90;;
11964;SDS011;6042;41.326;19.826;2023-12-20T02:48:46;5.67;;;2.50;;
11964;SDS011;6042;41.326;19.826;2023-12-20T02:51:15;2.10;;;1.90;;
11964;SDS011;6042;41.326;19.826;2023-12-20T02:53:44;2.93;;;1.97;;
11964;SDS011;6042;41.326;19.826;2023-12-20T02:56:14;4.27;;;2.37;;
11964;SDS011;6042;41.326;19.826;2023-12-20T02:58:44;3.90;;;3.00;;
11964;SDS011;6042;41.326;19.826;2023-12-20T03:01:13;2.10;;;1.50;;
11964;SDS011;6042;41.326;19.826;2023-12-20T03:03:42;4.20;;;2.37;;
11964;SDS011;6042;41.326;19.826;2023-12-20T03:06:11;2.57;;;2.13;;
11964;SDS011;6042;41.326;19.826;2023-12-20T03:08:43;3.00;;;2.00;;
11964;SDS011;6042;41.326;19.826;2023-12-20T03:11:12;4.63;;;2.17;;
11964;SDS011;6042;41.326;19.826;2023-12-20T03:13:43;2.83;;;2.17;;
11964;SDS011;6042;41.326;19.826;2023-12-20T03:16:12;5.87;;;2.40;;
11964;SDS011;6042;41.326;19.826;2023-12-20T03:18:44;3.53;;;2.33;;
11964;SDS011;6042;41.326;19.826;2023-12-20T03:21:12;2.87;;;1.87;;
11964;SDS011;6042;41.326;19.826;2023-12-20T03:23:41;2.73;;;1.80;;
11964;SDS011;6042;41.326;19.826;2023-12-20T03:26:11;4.33;;;2.00;;
11964;SDS011;6042;41.326;19.826;2023-12-20T03:28:42;3.93;;;2.40;;
11964;SDS011;6042;41.326;19.826;2023-12-20T03:31:11;2.93;;;1.30;;
11964;SDS011;6042;41.326;19.826;2023-12-20T03:33:41;2.93;;;2.00;;
11964;SDS011;6042;41.326;19.826;2023-12-20T03:36:10;3.33;;;1.90;;
11964;SDS011;6042;41.326;19.826;2023-12-20T03:38:40;3.50;;;2.00;;
11964;SDS011;6042;41.326;19.826;2023-12-20T03:41:09;3.73;;;2.07;;
11964;SDS011;6042;41.326;19.826;2023-12-20T03:43:38;3.00;;;1.80;;
11964;SDS011;6042;41.326;19.826;2023-12-20T03:46:09;4.40;;;1.97;;
11964;SDS011;6042;41.326;19.826;2023-12-20T03:48:38;3.93;;;1.70;;
11964;SDS011;6042;41.326;19.826;2023-12-20T03:51:07;1.47;;;1.37;;
11964;SDS011;6042;41.326;19.826;2023-12-20T03:53:36;2.03;;;1.20;;
11964;SDS011;6042;41.326;19.826;2023-12-20T03:56:07;2.83;;;1.80;;
11964;SDS011;6042;41.326;19.826;2023-12-20T03:58:36;2.47;;;1.50;;
11964;SDS011;6042;41.326;19.826;2023-12-20T04:01:10;2.33;;;1.70;;
11964;SDS011;6042;41.326;19.826;2023-12-20T04:03:39;1.60;;;1.50;;
11964;SDS011;6042;41.326;19.826;2023-12-20T04:06:09;2.20;;;1.50;;
11964;SDS011;6042;41.326;19.826;2023-12-20T04:08:38;2.50;;;1.33;;
11964;SDS011;6042;41.326;19.826;2023-12-20T04:11:07;2.57;;;1.57;;
11964;SDS011;6042;41.326;19.826;2023-12-20T04:13:36;3.87;;;1.60;;
11964;SDS011;6042;41.326;19.826;2023-12-20T04:16:05;2.90;;;1.60;;
11964;SDS011;6042;41.326;19.826;2023-12-20T04:18:36;3.53;;;1.40;;
11964;SDS011;6042;41.326;19.826;2023-12-20T04:21:05;1.90;;;1.30;;
11964;SDS011;6042;41.326;19.826;2023-12-20T04:23:34;1.30;;;1.20;;
11964;SDS011;6042;41.326;19.826;2023-12-20T04:26:03;2.93;;;1.50;;
11964;SDS011;6042;41.326;19.826;2023-12-20T04:28:32;1.87;;;1.43;;
11964;SDS011;6042;41.326;19.826;2023-12-20T04:31:01;2.07;;;1.53;;
11964;SDS011;6042;41.326;19.826;2023-12-20T04:33:32;2.10;;;1.60;;
11964;SDS011;6042;41.326;19.826;2023-12-20T04:36:02;3.63;;;1.90;;
11964;SDS011;6042;41.326;19.826;2023-12-20T04:38:31;2.93;;;2.03;;
11964;SDS011;6042;41.326;19.826;2023-12-20T04:41:00;2.33;;;1.77;;
11964;SDS011;6042;41.326;19.826;2023-12-20T04:43:30;6.93;;;2.20;;
11964;SDS011;6042;41.326;19.826;2023-12-20T04:45:59;3.37;;;1.60;;
11964;SDS011;6042;41.326;19.826;2023-12-20T04:48:29;3.70;;;1.90;;
11964;SDS011;6042;41.326;19.826;2023-12-20T04:50:58;2.83;;;2.00;;
11964;SDS011;6042;41.326;19.826;2023-12-20T04:53:29;2.57;;;1.93;;
11964;SDS011;6042;41.326;19.826;2023-12-20T04:55:59;3.90;;;1.93;;
11964;SDS011;6042;41.326;19.826;2023-12-20T04:58:30;2.37;;;1.40;;
11964;SDS011;6042;41.326;19.826;2023-12-20T05:00:59;2.67;;;1.80;;
11964;SDS011;6042;41.326;19.826;2023-12-20T05:03:29;5.60;;;1.70;;
11964;SDS011;6042;41.326;19.826;2023-12-20T05:05:58;3.00;;;1.83;;
11964;SDS011;6042;41.326;19.826;2023-12-20T05:08:42;3.20;;;1.97;;
11964;SDS011;6042;41.326;19.826;2023-12-20T05:11:34;3.37;;;1.80;;
11964;SDS011;6042;41.326;19.826;2023-12-20T05:14:03;3.53;;;1.63;;
11964;SDS011;6042;41.326;19.826;2023-12-20T05:16:34;3.43;;;1.80;;
11964;SDS011;6042;41.326;19.826;2023-12-20T05:19:04;3.63;;;1.73;;
11964;SDS011;6042;41.326;19.826;2023-12-20T05:21:34;4.67;;;1.87;;
11964;SDS011;6042;41.326;19.826;2023-12-20T05:24:05;3.53;;;2.20;;
11964;SDS011;6042;41.326;19.826;2023-12-20T05:26:37;7.03;;;2.10;;
11964;SDS011;6042;41.326;19.826;2023-12-20T05:29:07;3.20;;;2.03;;
11964;SDS011;6042;41.326;19.826;2023-12-20T05:31:37;2.97;;;1.90;;
11964;SDS011;6042;41.326;19.826;2023-12-20T05:34:06;2.43;;;1.70;;
11964;SDS011;6042;41.326;19.826;2023-12-20T05:36:35;3.80;;;1.67;;
11964;SDS011;6042;41.326;19.826;2023-12-20T05:39:07;2.73;;;1.80;;
11964;SDS011;6042;41.326;19.826;2023-12-20T05:41:36;2.40;;;1.10;;
11964;SDS011;6042;41.326;19.826;2023-12-20T05:44:05;1.60;;;1.40;;
11964;SDS011;6042;41.326;19.826;2023-12-20T05:46:34;2.00;;;1.70;;
11964;SDS011;6042;41.326;19.826;2023-12-20T05:49:07;5.00;;;1.83;;
11964;SDS011;6042;41.326;19.826;2023-12-20T05:51:36;3.50;;;1.93;;
11964;SDS011;6042;41.326;19.826;2023-12-20T05:54:09;2.60;;;1.63;;
11964;SDS011;6042;41.326;19.826;2023-12-20T05:56:39;1.70;;;1.47;;
11964;SDS011;6042;41.326;19.826;2023-12-20T05:59:08;3.47;;;1.53;;
11964;SDS011;6042;41.326;19.826;2023-12-20T06:01:38;5.20;;;1.67;;
11964;SDS011;6042;41.326;19.826;2023-12-20T06:04:08;2.40;;;1.80;;
11964;SDS011;6042;41.326;19.826;2023-12-20T06:06:40;6.37;;;2.13;;
11964;SDS011;6042;41.326;19.826;2023-12-20T06:09:16;3.87;;;2.00;;
11964;SDS011;6042;41.326;19.826;2023-12-20T06:11:47;6.03;;;2.43;;
11964;SDS011;6042;41.326;19.826;2023-12-20T06:14:22;6.80;;;2.23;;
11964;SDS011;6042;41.326;19.826;2023-12-20T06:16:53;9.70;;;1.90;;
11964;SDS011;6042;41.326;19.826;2023-12-20T06:19:22;3.30;;;2.00;;
11964;SDS011;6042;41.326;19.826;2023-12-20T06:21:51;3.43;;;2.00;;
11964;SDS011;6042;41.326;19.826;2023-12-20T06:24:22;5.40;;;2.00;;
11964;SDS011;6042;41.326;19.826;2023-12-20T06:26:54;3.40;;;1.40;;
11964;SDS011;6042;41.326;19.826;2023-12-20T06:29:23;3.67;;;2.13;;
11964;SDS011;6042;41.326;19.826;2023-12-20T06:31:53;6.43;;;1.90;;
11964;SDS011;6042;41.326;19.826;2023-12-20T06:34:22;5.30;;;2.13;;
11964;SDS011;6042;41.326;19.826;2023-12-20T06:36:51;2.27;;;1.40;;
11964;SDS011;6042;41.326;19.826;2023-12-20T06:39:21;4.83;;;2.00;;
11964;SDS011;6042;41.326;19.826;2023-12-20T06:41:50;2.80;;;1.70;;
11964;SDS011;6042;41.326;19.826;2023-12-20T06:44:19;3.30;;;2.13;;
11964;SDS011;6042;41.326;19.826;2023-12-20T06:46:48;4.23;;;2.17;;
11964;SDS011;6042;41.326;19.826;2023-12-20T06:49:18;4.00;;;1.70;;
11964;SDS011;6042;41.326;19.826;2023-12-20T06:51:47;3.77;;;1.80;;
11964;SDS011;6042;41.326;19.826;2023-12-20T06:54:16;5.57;;;1.87;;
11964;SDS011;6042;41.326;19.826;2023-12-20T06:56:47;6.03;;;2.17;;
11964;SDS011;6042;41.326;19.826;2023-12-20T06:59:16;3.77;;;1.90;;
11964;SDS011;6042;41.326;19.826;2023-12-20T07:01:47;6.80;;;2.20;;
11964;SDS011;6042;41.326;19.826;2023-12-20T07:04:17;2.87;;;2.20;;
11964;SDS011;6042;41.326;19.826;2023-12-20T07:06:49;3.10;;;2.33;;
11964;SDS011;6042;41.326;19.826;2023-12-20T07:09:19;5.10;;;3.00;;
11964;SDS011;6042;41.326;19.826;2023-12-20T07:11:50;9.87;;;3.03;;
11964;SDS011;6042;41.326;19.826;2023-12-20T07:14:19;6.13;;;2.97;;
11964;SDS011;6042;41.326;19.826;2023-12-20T07:16:50;8.80;;;2.60;;
11964;SDS011;6042;41.326;19.826;2023-12-20T07:19:19;4.87;;;2.53;;
11964;SDS011;6042;41.326;19.826;2023-12-20T07:21:49;5.93;;;2.40;;
11964;SDS011;6042;41.326;19.826;2023-12-20T07:24:18;6.23;;;2.60;;
11964;SDS011;6042;41.326;19.826;2023-12-20T07:26:48;3.87;;;2.03;;
11964;SDS011;6042;41.326;19.826;2023-12-20T07:29:18;6.60;;;2.87;;
11964;SDS011;6042;41.326;19.826;2023-12-20T07:31:48;4.77;;;2.93;;
11964;SDS011;6042;41.326;19.826;2023-12-20T07:34:19;5.30;;;2.40;;
11964;SDS011;6042;41.326;19.826;2023-12-20T07:36:48;5.27;;;3.00;;
11964;SDS011;6042;41.326;19.826;2023-12-20T07:39:17;7.07;;;3.20;;
11964;SDS011;6042;41.326;19.826;2023-12-20T07:41:46;8.87;;;2.87;;
11964;SDS011;6042;41.326;19.826;2023-12-20T07:44:17;7.30;;;3.40;;
11964;SDS011;6042;41.326;19.826;2023-12-20T07:46:46;5.50;;;2.27;;
11964;SDS011;6042;41.326;19.826;2023-12-20T07:49:15;6.10;;;3.20;;
11964;SDS011;6042;41.326;19.826;2023-12-20T07:51:45;8.80;;;3.00;;
11964;SDS011;6042;41.326;19.826;2023-12-20T07:54:15;9.03;;;3.10;;
11964;SDS011;6042;41.326;19.826;2023-12-20T07:56:44;6.07;;;2.80;;
11964;SDS011;6042;41.326;19.826;2023-12-20T07:59:14;6.33;;;3.43;;
11964;SDS011;6042;41.326;19.826;2023-12-20T08:02:00;7.67;;;2.80;;
11964;SDS011;6042;41.326;19.826;2023-12-20T08:04:30;7.73;;;2.87;;
11964;SDS011;6042;41.326;19.826;2023-12-20T08:07:00;5.77;;;3.20;;
11964;SDS011;6042;41.326;19.826;2023-12-20T08:09:30;5.10;;;3.17;;
11964;SDS011;6042;41.326;19.826;2023-12-20T08:12:00;6.07;;;3.70;;
11964;SDS011;6042;41.326;19.826;2023-12-20T08:14:31;8.00;;;3.80;;
11964;SDS011;6042;41.326;19.826;2023-12-20T08:17:00;6.73;;;3.30;;
11964;SDS011;6042;41.326;19.826;2023-12-20T08:19:31;8.83;;;3.33;;
11964;SDS011;6042;41.326;19.826;2023-12-20T08:22:00;6.67;;;3.57;;
11964;SDS011;6042;41.326;19.826;2023-12-20T08:24:29;23.50;;;6.70;;
11964;SDS011;6042;41.326;19.826;2023-12-20T08:26:58;14.47;;;4.67;;
11964;SDS011;6042;41.326;19.826;2023-12-20T08:29:27;9.20;;;4.63;;
11964;SDS011;6042;41.326;19.826;2023-12-20T08:31:59;13.90;;;5.10;;
11964;SDS011;6042;41.326;19.826;2023-12-20T08:34:29;11.83;;;4.13;;
11964;SDS011;6042;41.326;19.826;2023-12-20T08:36:58;8.63;;;4.13;;
11964;SDS011;6042;41.326;19.826;2023-12-20T08:39:27;12.20;;;4.80;;
11964;SDS011;6042;41.326;19.826;2023-12-20T08:41:59;10.20;;;5.23;;
11964;SDS011;6042;41.326;19.826;2023-12-20T08:44:28;10.53;;;5.30;;
11964;SDS011;6042;41.326;19.826;2023-12-20T08:47:02;13.90;;;6.60;;
11964;SDS011;6042;41.326;19.826;2023-12-20T08:49:33;9.17;;;7.07;;
11964;SDS011;6042;41.326;19.826;2023-12-20T08:52:04;12.57;;;5.80;;
11964;SDS011;6042;41.326;19.826;2023-12-20T08:54:33;14.10;;;6.63;;
11964;SDS011;6042;41.326;19.826;2023-12-20T08:57:03;8.40;;;5.23;;
11964;SDS011;6042;41.326;19.826;2023-12-20T08:59:35;8.73;;;4.90;;
11964;SDS011;6042;41.326;19.826;2023-12-20T09:02:04;8.90;;;4.83;;
11964;SDS011;6042;41.326;19.826;2023-12-20T09:04:33;6.50;;;3.70;;
11964;SDS011;6042;41.326;19.826;2023-12-20T09:07:02;7.03;;;3.30;;
11964;SDS011;6042;41.326;19.826;2023-12-20T09:09:31;5.87;;;2.70;;
11964;SDS011;6042;41.326;19.826;2023-12-20T09:12:00;4.27;;;3.70;;
11964;SDS011;6042;41.326;19.826;2023-12-20T09:14:29;8.90;;;4.77;;
11964;SDS011;6042;41.326;19.826;2023-12-20T09:17:00;7.07;;;3.30;;
11964;SDS011;6042;41.326;19.826;2023-12-20T09:19:30;4.83;;;3.50;;
11964;SDS011;6042;41.326;19.826;2023-12-20T09:21:59;6.27;;;3.73;;
11964;SDS011;6042;41.326;19.826;2023-12-20T09:24:29;11.30;;;3.87;;
11964;SDS011;6042;41.326;19.826;2023-12-20T09:27:00;8.77;;;4.10;;
11964;SDS011;6042;41.326;19.826;2023-12-20T09:29:29;7.63;;;3.93;;
11964;SDS011;6042;41.326;19.826;2023-12-20T09:32:00;6.83;;;3.83;;
11964;SDS011;6042;41.326;19.826;2023-12-20T09:34:29;4.83;;;3.53;;
11964;SDS011;6042;41.326;19.826;2023-12-20T09:36:59;7.33;;;3.83;;
11964;SDS011;6042;41.326;19.826;2023-12-20T09:39:29;6.57;;;4.00;;
11964;SDS011;6042;41.326;19.826;2023-12-20T09:42:02;5.47;;;3.60;;
11964;SDS011;6042;41.326;19.826;2023-12-20T09:44:32;10.03;;;4.73;;
11964;SDS011;6042;41.326;19.826;2023-12-20T09:47:04;6.43;;;3.53;;
11964;SDS011;6042;41.326;19.826;2023-12-20T09:49:36;7.73;;;3.97;;
11964;SDS011;6042;41.326;19.826;2023-12-20T09:52:06;3.80;;;3.03;;
11964;SDS011;6042;41.326;19.826;2023-12-20T09:54:38;5.90;;;3.63;;
11964;SDS011;6042;41.326;19.826;2023-12-20T09:57:08;3.83;;;3.43;;
11964;SDS011;6042;41.326;19.826;2023-12-20T09:59:39;9.27;;;3.37;;
11964;SDS011;6042;41.326;19.826;2023-12-20T10:02:13;8.60;;;4.37;;
11964;SDS011;6042;41.326;19.826;2023-12-20T10:04:46;8.17;;;4.17;;
11964;SDS011;6042;41.326;19.826;2023-12-20T10:07:18;8.33;;;5.13;;
11964;SDS011;6042;41.326;19.826;2023-12-20T10:09:47;7.37;;;4.50;;
11964;SDS011;6042;41.326;19.826;2023-12-20T10:12:16;11.60;;;5.50;;
11964;SDS011;6042;41.326;19.826;2023-12-20T10:14:47;13.30;;;6.37;;
11964;SDS011;6042;41.326;19.826;2023-12-20T10:17:20;10.90;;;5.63;;
11964;SDS011;6042;41.326;19.826;2023-12-20T10:19:51;9.93;;;5.47;;
11964;SDS011;6042;41.326;19.826;2023-12-20T10:22:21;7.27;;;4.20;;
11964;SDS011;6042;41.326;19.826;2023-12-20T10:24:50;8.10;;;5.07;;
11964;SDS011;6042;41.326;19.826;2023-12-20T10:27:19;8.23;;;4.90;;
11964;SDS011;6042;41.326;19.826;2023-12-20T10:29:48;6.90;;;4.33;;
11964;SDS011;6042;41.326;19.826;2023-12-20T10:32:26;6.87;;;4.60;;
11964;SDS011;6042;41.326;19.826;2023-12-20T10:34:58;12.97;;;5.20;;
11964;SDS011;6042;41.326;19.826;2023-12-20T10:37:27;6.07;;;4.10;;
11964;SDS011;6042;41.326;19.826;2023-12-20T10:39:58;6.50;;;4.90;;
11964;SDS011;6042;41.326;19.826;2023-12-20T10:42:34;3.97;;;3.30;;
11964;SDS011;6042;41.326;19.826;2023-12-20T10:45:05;10.13;;;4.13;;
11964;SDS011;6042;41.326;19.826;2023-12-20T10:47:35;8.13;;;4.53;;
11964;SDS011;6042;41.326;19.826;2023-12-20T10:50:08;8.07;;;4.77;;
11964;SDS011;6042;41.326;19.826;2023-12-20T10:52:38;10.03;;;4.63;;
11964;SDS011;6042;41.326;19.826;2023-12-20T10:55:08;10.20;;;5.47;;
11964;SDS011;6042;41.326;19.826;2023-12-20T10:57:37;7.67;;;3.60;;
11964;SDS011;6042;41.326;19.826;2023-12-20T11:00:08;15.20;;;7.00;;
11964;SDS011;6042;41.326;19.826;2023-12-20T11:02:44;4.17;;;3.60;;
11964;SDS011;6042;41.326;19.826;2023-12-20T11:05:16;6.80;;;4.30;;
11964;SDS011;6042;41.326;19.826;2023-12-20T11:07:55;9.63;;;4.43;;
11964;SDS011;6042;41.326;19.826;2023-12-20T11:10:31;12.47;;;5.50;;
11964;SDS011;6042;41.326;19.826;2023-12-20T11:13:06;14.37;;;6.73;;
11964;SDS011;6042;41.326;19.826;2023-12-20T11:15:39;12.00;;;6.00;;
11964;SDS011;6042;41.326;19.826;2023-12-20T11:18:10;9.50;;;7.13;;
11964;SDS011;6042;41.326;19.826;2023-12-20T11:20:41;11.93;;;7.87;;
11964;SDS011;6042;41.326;19.826;2023-12-20T11:23:10;9.83;;;7.20;;
11964;SDS011;6042;41.326;19.826;2023-12-20T11:25:46;10.90;;;6.53;;
11964;SDS011;6042;41.326;19.826;2023-12-20T11:28:15;11.77;;;5.90;;
11964;SDS011;6042;41.326;19.826;2023-12-20T11:30:50;13.47;;;6.83;;
11964;SDS011;6042;41.326;19.826;2023-12-20T11:33:24;27.87;;;16.23;;
11964;SDS011;6042;41.326;19.826;2023-12-20T11:35:57;9.53;;;6.23;;
11964;SDS011;6042;41.326;19.826;2023-12-20T11:38:27;11.23;;;6.40;;
11964;SDS011;6042;41.326;19.826;2023-12-20T11:41:05;10.67;;;6.37;;
11964;SDS011;6042;41.326;19.826;2023-12-20T11:43:38;9.07;;;6.10;;
11964;SDS011;6042;41.326;19.826;2023-12-20T11:46:11;7.37;;;3.47;;
11964;SDS011;6042;41.326;19.826;2023-12-20T11:48:45;4.40;;;3.70;;
11964;SDS011;6042;41.326;19.826;2023-12-20T11:51:19;8.67;;;4.27;;
11964;SDS011;6042;41.326;19.826;2023-12-20T11:53:51;5.10;;;3.87;;
11964;SDS011;6042;41.326;19.826;2023-12-20T11:56:21;4.63;;;3.77;;
11964;SDS011;6042;41.326;19.826;2023-12-20T11:58:50;4.27;;;2.80;;
11964;SDS011;6042;41.326;19.826;2023-12-20T12:01:20;5.73;;;3.93;;
11964;SDS011;6042;41.326;19.826;2023-12-20T12:03:50;5.43;;;3.53;;
11964;SDS011;6042;41.326;19.826;2023-12-20T12:06:31;4.37;;;3.87;;
11964;SDS011;6042;41.326;19.826;2023-12-20T12:09:00;8.80;;;4.17;;
11964;SDS011;6042;41.326;19.826;2023-12-20T12:11:30;4.90;;;4.33;;
11964;SDS011;6042;41.326;19.826;2023-12-20T12:14:00;7.07;;;4.10;;
11964;SDS011;6042;41.326;19.826;2023-12-20T12:16:29;5.83;;;4.23;;
11964;SDS011;6042;41.326;19.826;2023-12-20T12:19:00;8.03;;;4.50;;
11964;SDS011;6042;41.326;19.826;2023-12-20T12:21:29;8.17;;;4.60;;
11964;SDS011;6042;41.326;19.826;2023-12-20T12:24:06;6.73;;;4.30;;
11964;SDS011;6042;41.326;19.826;2023-12-20T12:26:36;8.07;;;4.77;;
11964;SDS011;6042;41.326;19.826;2023-12-20T12:29:07;7.33;;;4.53;;
11964;SDS011;6042;41.326;19.826;2023-12-20T12:31:36;7.13;;;5.10;;
11964;SDS011;6042;41.326;19.826;2023-12-20T12:34:07;6.93;;;4.60;;
11964;SDS011;6042;41.326;19.826;2023-12-20T12:36:37;4.80;;;4.30;;
11964;SDS011;6042;41.326;19.826;2023-12-20T12:39:07;5.40;;;4.20;;
11964;SDS011;6042;41.326;19.826;2023-12-20T12:41:37;7.70;;;4.73;;
11964;SDS011;6042;41.326;19.826;2023-12-20T12:44:06;6.13;;;4.83;;
11964;SDS011;6042;41.326;19.826;2023-12-20T12:46:43;7.97;;;5.10;;
11964;SDS011;6042;41.326;19.826;2023-12-20T12:49:18;10.00;;;5.23;;
11964;SDS011;6042;41.326;19.826;2023-12-20T12:51:49;14.00;;;5.37;;
11964;SDS011;6042;41.326;19.826;2023-12-20T12:54:18;7.40;;;5.53;;
11964;SDS011;6042;41.326;19.826;2023-12-20T12:56:53;9.57;;;6.13;;
11964;SDS011;6042;41.326;19.826;2023-12-20T12:59:22;10.77;;;6.20;;
11964;SDS011;6042;41.326;19.826;2023-12-20T13:01:52;9.67;;;5.57;;
11964;SDS011;6042;41.326;19.826;2023-12-20T13:04:22;6.67;;;4.80;;
11964;SDS011;6042;41.326;19.826;2023-12-20T13:06:52;6.87;;;4.97;;
11964;SDS011;6042;41.326;19.826;2023-12-20T13:09:24;6.43;;;4.60;;
11964;SDS011;6042;41.326;19.826;2023-12-20T13:11:53;10.63;;;5.90;;
11964;SDS011;6042;41.326;19.826;2023-12-20T13:14:22;8.03;;;4.10;;
11964;SDS011;6042;41.326;19.826;2023-12-20T13:16:51;6.13;;;4.90;;
11964;SDS011;6042;41.326;19.826;2023-12-20T13:19:20;7.93;;;5.10;;
11964;SDS011;6042;41.326;19.826;2023-12-20T13:21:51;7.20;;;5.30;;
11964;SDS011;6042;41.326;19.826;2023-12-20T13:24:20;8.97;;;4.70;;
11964;SDS011;6042;41.326;19.826;2023-12-20T13:26:49;7.17;;;5.03;;
11964;SDS011;6042;41.326;19.826;2023-12-20T13:29:18;5.67;;;4.40;;
11964;SDS011;6042;41.326;19.826;2023-12-20T13:31:47;7.73;;;4.93;;
11964;SDS011;6042;41.326;19.826;2023-12-20T13:34:16;6.93;;;5.13;;
11964;SDS011;6042;41.326;19.826;2023-12-20T13:36:45;9.70;;;5.83;;
11964;SDS011;6042;41.326;19.826;2023-12-20T13:39:18;10.37;;;6.33;;
11964;SDS011;6042;41.326;19.826;2023-12-20T13:41:48;8.53;;;6.67;;
11964;SDS011;6042;41.326;19.826;2023-12-20T13:44:18;14.53;;;7.47;;
11964;SDS011;6042;41.326;19.826;2023-12-20T13:46:48;11.50;;;7.90;;
11964;SDS011;6042;41.326;19.826;2023-12-20T13:49:17;9.60;;;7.00;;
11964;SDS011;6042;41.326;19.826;2023-12-20T13:51:47;14.53;;;9.47;;
11964;SDS011;6042;41.326;19.826;2023-12-20T13:54:21;11.90;;;7.63;;
11964;SDS011;6042;41.326;19.826;2023-12-20T13:56:50;11.80;;;7.80;;
11964;SDS011;6042;41.326;19.826;2023-12-20T13:59:38;13.83;;;7.60;;
11964;SDS011;6042;41.326;19.826;2023-12-20T14:02:09;9.43;;;7.17;;
11964;SDS011;6042;41.326;19.826;2023-12-20T14:04:38;12.07;;;6.87;;
11964;SDS011;6042;41.326;19.826;2023-12-20T14:07:14;14.97;;;9.90;;
11964;SDS011;6042;41.326;19.826;2023-12-20T14:09:44;18.23;;;7.63;;
11964;SDS011;6042;41.326;19.826;2023-12-20T14:12:14;12.50;;;7.37;;
11964;SDS011;6042;41.326;19.826;2023-12-20T14:14:53;11.67;;;7.40;;
11964;SDS011;6042;41.326;19.826;2023-12-20T14:17:31;10.50;;;7.33;;
11964;SDS011;6042;41.326;19.826;2023-12-20T14:20:04;10.90;;;7.40;;
11964;SDS011;6042;41.326;19.826;2023-12-20T14:22:40;11.80;;;7.33;;
11964;SDS011;6042;41.326;19.826;2023-12-20T14:25:13;12.27;;;7.73;;
11964;SDS011;6042;41.326;19.826;2023-12-20T14:27:44;14.27;;;7.60;;
11964;SDS011;6042;41.326;19.826;2023-12-20T14:30:14;10.33;;;7.30;;
11964;SDS011;6042;41.326;19.826;2023-12-20T14:32:44;9.87;;;7.97;;
11964;SDS011;6042;41.326;19.826;2023-12-20T14:35:25;11.77;;;7.73;;
11964;SDS011;6042;41.326;19.826;2023-12-20T14:37:52;9.07;;;5.67;;
11964;SDS011;6042;41.326;19.826;2023-12-20T14:40:23;7.17;;;4.77;;
11964;SDS011;6042;41.326;19.826;2023-12-20T14:42:51;9.70;;;4.97;;
11964;SDS011;6042;41.326;19.826;2023-12-20T14:45:19;6.17;;;4.60;;
11964;SDS011;6042;41.326;19.826;2023-12-20T14:47:46;4.73;;;3.80;;
11964;SDS011;6042;41.326;19.826;2023-12-20T14:50:17;5.67;;;4.67;;
11964;SDS011;6042;41.326;19.826;2023-12-20T14:52:47;4.53;;;4.00;;
11964;SDS011;6042;41.326;19.826;2023-12-20T14:55:18;9.27;;;4.63;;
11964;SDS011;6042;41.326;19.826;2023-12-20T14:57:48;8.43;;;4.43;;
11964;SDS011;6042;41.326;19.826;2023-12-20T15:00:17;7.50;;;5.03;;
11964;SDS011;6042;41.326;19.826;2023-12-20T15:02:47;9.13;;;6.70;;
11964;SDS011;6042;41.326;19.826;2023-12-20T15:05:17;13.37;;;7.47;;